Time;durP1;ratioP1;P1;durP2;ratioP2;P2;SDS_P1;SDS_P2;PMS_P1;PMS_P2;Temp;Humidity;BMP_temperature;BMP_pressure;BME280_temperature;BME280_humidity;BME280_pressure;Samples;Min_cycle;Max_cycle;Signal;HPM_P1;HPM_P2
2023/05/25 00:01:08;;;;;;;8.90;2.45;;;10.20;99.90;;;;;;5115219;28;20042;-84
2023/05/25 00:03:34;;;;;;;7.68;2.15;;;10.10;99.90;;;;;;5115249;28;20115;-85
2023/05/25 00:06:00;;;;;;;6.25;1.90;;;10.10;99.90;;;;;;5115254;28;20557;-85
2023/05/25 00:08:26;;;;;;;6.05;1.73;;;10.10;99.90;;;;;;5115328;28;20044;-85
2023/05/25 00:10:52;;;;;;;6.05;2.20;;;10.00;99.90;;;;;;5114999;28;20092;-84
2023/05/25 00:13:17;;;;;;;10.32;2.55;;;10.00;99.90;;;;;;5115268;28;20503;-85
2023/05/25 00:15:43;;;;;;;7.32;2.25;;;10.00;99.90;;;;;;5115228;28;20127;-85
2023/05/25 00:18:09;;;;;;;9.20;2.42;;;10.00;99.90;;;;;;5114882;28;20043;-84
2023/05/25 00:20:34;;;;;;;10.95;3.20;;;10.00;99.90;;;;;;5114498;28;20031;-85
2023/05/25 00:23:01;;;;;;;12.73;3.08;;;10.00;99.90;;;;;;5114946;28;20492;-85
2023/05/25 00:25:27;;;;;;;10.30;3.00;;;10.00;99.90;;;;;;5113542;28;20101;-85
2023/05/25 00:27:52;;;;;;;8.15;2.20;;;9.90;99.90;;;;;;5114959;28;20038;-84
2023/05/25 00:30:18;;;;;;;8.02;2.20;;;9.90;99.90;;;;;;5114552;28;20487;-85
2023/05/25 00:32:44;;;;;;;7.45;2.60;;;9.80;99.90;;;;;;5114844;28;20043;-85
2023/05/25 00:35:10;;;;;;;8.90;2.63;;;9.80;99.90;;;;;;5096486;28;20481;-84
2023/05/25 00:37:36;;;;;;;6.88;2.28;;;9.80;99.90;;;;;;5114760;28;20126;-85
2023/05/25 00:40:01;;;;;;;8.25;2.40;;;9.70;99.90;;;;;;5114327;28;20048;-85
2023/05/25 00:42:28;;;;;;;7.60;2.53;;;9.70;99.90;;;;;;5114692;28;20042;-85
2023/05/25 00:44:56;;;;;;;5.38;2.20;;;9.70;99.90;;;;;;5114561;28;20044;-85
2023/05/25 00:47:23;;;;;;;7.60;2.22;;;9.60;99.90;;;;;;5114505;28;20035;-86
2023/05/25 00:49:49;;;;;;;10.88;2.70;;;9.60;99.90;;;;;;5112781;28;20400;-86
2023/05/25 00:52:15;;;;;;;7.63;2.30;;;9.60;99.90;;;;;;5114327;28;20449;-86
2023/05/25 00:54:41;;;;;;;10.07;3.28;;;9.50;99.90;;;;;;5114473;28;20040;-86
2023/05/25 00:57:09;;;;;;;7.28;2.10;;;9.40;99.90;;;;;;5114322;28;20546;-86
2023/05/25 00:59:43;;;;;;;6.85;2.45;;;9.40;99.90;;;;;;5114022;28;20047;-86
2023/05/25 01:02:10;;;;;;;6.93;2.00;;;9.30;99.90;;;;;;5114319;28;20133;-86
2023/05/25 01:04:59;;;;;;;7.07;1.98;;;9.30;99.90;;;;;;5114115;28;20036;-86
2023/05/25 01:07:26;;;;;;;8.80;2.38;;;9.30;99.90;;;;;;5114171;28;20051;-86
2023/05/25 01:10:01;;;;;;;7.97;2.25;;;9.20;99.90;;;;;;5113723;28;20400;-86
2023/05/25 01:12:29;;;;;;;8.63;2.20;;;9.20;99.90;;;;;;5112758;28;20047;-85
2023/05/25 01:14:55;;;;;;;11.55;2.67;;;9.20;99.90;;;;;;5113986;28;20039;-85
2023/05/25 01:17:21;;;;;;;9.60;2.60;;;9.20;99.90;;;;;;5114140;28;20043;-86
2023/05/25 01:19:47;;;;;;;16.52;3.08;;;9.20;99.90;;;;;;5113649;27;20466;-86
2023/05/25 01:22:32;;;;;;;13.95;3.10;;;9.20;99.90;;;;;;5113961;28;20442;-86
2023/05/25 01:25:05;;;;;;;10.75;2.72;;;9.20;99.90;;;;;;5113655;28;20044;-86
2023/05/25 01:27:38;;;;;;;10.07;2.70;;;9.10;99.90;;;;;;5113721;28;20575;-85
2023/05/25 01:30:09;;;;;;;8.90;2.80;;;9.10;99.90;;;;;;5113613;28;20035;-85
2023/05/25 01:32:36;;;;;;;8.88;2.85;;;9.10;99.90;;;;;;5112887;28;20401;-86
2023/05/25 01:35:03;;;;;;;12.20;3.35;;;9.10;99.90;;;;;;5113592;28;20050;-85
2023/05/25 01:37:30;;;;;;;9.60;2.70;;;9.10;99.90;;;;;;5113534;28;20055;-85
2023/05/25 01:39:56;;;;;;;10.25;3.05;;;9.10;99.90;;;;;;5113303;28;20088;-85
2023/05/25 01:42:22;;;;;;;10.00;2.70;;;9.10;99.90;;;;;;5113457;28;20032;-86
2023/05/25 01:44:48;;;;;;;5.53;2.00;;;9.00;99.90;;;;;;5113383;28;20133;-85
2023/05/25 01:47:27;;;;;;;8.50;2.75;;;9.00;99.90;;;;;;5113499;28;20382;-85
2023/05/25 01:50:21;;;;;;;7.90;2.33;;;9.00;99.90;;;;;;5112806;28;20035;-86
2023/05/25 01:52:54;;;;;;;4.97;2.03;;;9.00;99.90;;;;;;5113342;28;20397;-86
2023/05/25 01:55:25;;;;;;;5.85;1.80;;;8.90;99.90;;;;;;5113162;28;20527;-86
2023/05/25 01:57:56;;;;;;;5.55;1.85;;;8.90;99.90;;;;;;5113218;28;20111;-85
2023/05/25 02:00:30;;;;;;;4.70;1.70;;;8.90;99.90;;;;;;5112736;28;20027;-85
2023/05/25 02:02:56;;;;;;;7.22;2.35;;;8.90;99.90;;;;;;5113128;28;20039;-85
2023/05/25 02:05:22;;;;;;;5.18;1.90;;;8.90;99.90;;;;;;5113007;28;20076;-85
2023/05/25 02:07:47;;;;;;;5.32;1.63;;;8.80;99.90;;;;;;5112917;28;20101;-85
2023/05/25 02:10:13;;;;;;;6.78;2.03;;;8.80;99.90;;;;;;5112668;28;20039;-85
2023/05/25 02:12:38;;;;;;;7.32;2.00;;;8.80;99.90;;;;;;5112843;28;20039;-85
2023/05/25 02:15:05;;;;;;;5.90;2.05;;;8.80;99.90;;;;;;5112845;28;20131;-86
2023/05/25 02:17:30;;;;;;;8.07;2.47;;;8.80;99.90;;;;;;5112977;28;20122;-85
2023/05/25 02:19:56;;;;;;;7.60;2.13;;;8.80;99.90;;;;;;5112517;28;20063;-85
2023/05/25 02:22:22;;;;;;;6.18;2.00;;;8.70;99.90;;;;;;5112838;28;20504;-85
2023/05/25 02:24:48;;;;;;;5.95;1.98;;;8.70;99.90;;;;;;5112624;28;20046;-85
2023/05/25 02:27:14;;;;;;;4.53;1.65;;;8.70;99.90;;;;;;5112568;28;20034;-86
2023/05/25 02:29:40;;;;;;;6.22;1.90;;;8.70;99.90;;;;;;5112514;28;20497;-85
2023/05/25 02:32:06;;;;;;;6.20;1.95;;;8.70;99.90;;;;;;5112646;28;20114;-86
2023/05/25 02:34:32;;;;;;;7.55;2.47;;;8.70;99.90;;;;;;5094192;28;20403;-85
2023/05/25 02:36:57;;;;;;;4.40;1.73;;;8.70;99.90;;;;;;5112594;28;20077;-85
2023/05/25 02:39:26;;;;;;;6.13;2.17;;;8.70;99.90;;;;;;5112328;28;20032;-85
2023/05/25 02:41:52;;;;;;;6.78;2.22;;;8.70;99.90;;;;;;5112309;28;20031;-85
2023/05/25 02:44:18;;;;;;;6.88;2.13;;;8.70;99.90;;;;;;5112236;28;20393;-85
2023/05/25 02:46:43;;;;;;;4.20;1.40;;;8.70;99.90;;;;;;5112522;28;20169;-85
2023/05/25 02:49:09;;;;;;;5.10;1.60;;;8.60;99.90;;;;;;5112088;28;20122;-85
2023/05/25 02:51:35;;;;;;;4.82;2.03;;;8.60;99.90;;;;;;5112102;28;20084;-85
2023/05/25 02:54:01;;;;;;;6.03;1.65;;;8.60;99.90;;;;;;5112314;28;20120;-85
2023/05/25 02:56:27;;;;;;;3.78;1.40;;;8.60;99.90;;;;;;5112187;28;20120;-85
2023/05/25 02:58:52;;;;;;;4.30;1.55;;;8.60;99.90;;;;;;5112173;28;20036;-85
2023/05/25 03:01:19;;;;;;;6.22;1.30;;;8.50;99.90;;;;;;5111945;28;20511;-86
2023/05/25 03:03:45;;;;;;;4.50;1.50;;;8.50;99.90;;;;;;5112152;28;20036;-85
2023/05/25 03:06:12;;;;;;;4.03;1.35;;;8.50;99.90;;;;;;5111991;28;20401;-86
2023/05/25 03:08:40;;;;;;;5.50;1.70;;;8.40;99.90;;;;;;5112136;28;20035;-86
2023/05/25 03:11:05;;;;;;;4.05;1.27;;;8.40;99.90;;;;;;5111618;28;20048;-85
2023/05/25 03:13:31;;;;;;;5.35;1.52;;;8.40;99.90;;;;;;5112128;28;20042;-86
2023/05/25 03:15:57;;;;;;;3.83;1.20;;;8.30;99.90;;;;;;5111919;28;20043;-86
2023/05/25 03:18:22;;;;;;;5.28;1.48;;;8.30;99.90;;;;;;5111971;28;20485;-86
2023/05/25 03:20:48;;;;;;;4.63;1.27;;;8.30;99.90;;;;;;5111839;28;20084;-86
2023/05/25 03:23:13;;;;;;;6.82;1.77;;;8.30;99.90;;;;;;5112073;28;20404;-85
2023/05/25 03:25:39;;;;;;;5.30;1.35;;;8.30;99.90;;;;;;5111713;28;20072;-86
2023/05/25 03:28:05;;;;;;;5.15;1.45;;;8.30;99.90;;;;;;5112062;28;20028;-86
2023/05/25 03:30:30;;;;;;;5.93;1.40;;;8.20;99.90;;;;;;5111861;28;20035;-83
2023/05/25 03:32:56;;;;;;;4.63;1.50;;;8.20;99.90;;;;;;5112004;28;20096;-83
2023/05/25 03:35:22;;;;;;;5.13;1.60;;;8.20;99.90;;;;;;5112014;28;20397;-83
2023/05/25 03:37:47;;;;;;;6.63;2.22;;;8.20;99.90;;;;;;5111802;28;20394;-83
2023/05/25 03:40:13;;;;;;;6.55;2.30;;;8.20;99.90;;;;;;5111400;28;20060;-83
2023/05/25 03:42:39;;;;;;;7.78;2.88;;;8.20;99.90;;;;;;5112009;28;20036;-83
2023/05/25 03:45:07;;;;;;;7.85;2.55;;;8.20;99.90;;;;;;5111915;28;20050;-83
2023/05/25 03:47:34;;;;;;;5.68;2.17;;;8.30;99.90;;;;;;5111732;28;20039;-83
2023/05/25 03:49:59;;;;;;;5.97;2.25;;;8.30;99.90;;;;;;5093333;28;20454;-83
2023/05/25 03:52:25;;;;;;;7.60;2.70;;;8.30;99.90;;;;;;5111780;28;20035;-83
2023/05/25 03:54:51;;;;;;;7.70;2.60;;;8.30;99.90;;;;;;5112785;28;20043;-83
2023/05/25 03:57:16;;;;;;;7.07;2.55;;;8.30;99.90;;;;;;5115792;28;20039;-86
2023/05/25 03:59:42;;;;;;;6.25;2.38;;;8.30;99.90;;;;;;5115095;28;20064;-83
2023/05/25 04:02:07;;;;;;;6.72;2.05;;;8.30;99.90;;;;;;5115472;28;20071;-83
2023/05/25 04:04:33;;;;;;;5.40;2.13;;;8.30;99.90;;;;;;5115320;28;20092;-83
2023/05/25 04:06:58;;;;;;;6.47;2.13;;;8.30;99.90;;;;;;5115391;28;20047;-83
2023/05/25 04:09:24;;;;;;;6.80;2.40;;;8.30;99.90;;;;;;5115153;28;20095;-83
2023/05/25 04:11:50;;;;;;;4.32;1.70;;;8.30;99.90;;;;;;5113723;28;20425;-83
2023/05/25 04:14:15;;;;;;;4.55;1.70;;;8.40;99.90;;;;;;5115416;28;20031;-83
2023/05/25 04:16:41;;;;;;;5.18;1.77;;;8.30;99.90;;;;;;5115121;28;20512;-83
2023/05/25 04:19:07;;;;;;;5.68;1.85;;;8.30;99.90;;;;;;5114082;28;20071;-83
2023/05/25 04:21:32;;;;;;;5.50;2.00;;;8.40;99.90;;;;;;5114838;28;20493;-83
2023/05/25 04:23:58;;;;;;;6.32;2.03;;;8.40;99.90;;;;;;5115012;28;20044;-83
2023/05/25 04:26:26;;;;;;;5.65;1.75;;;8.40;99.90;;;;;;5113497;28;20050;-83
2023/05/25 04:28:53;;;;;;;4.68;1.60;;;8.40;99.90;;;;;;5115051;28;20115;-83
2023/05/25 04:31:19;;;;;;;5.50;1.90;;;8.50;99.90;;;;;;5114591;28;20043;-84
2023/05/25 04:33:45;;;;;;;4.63;1.65;;;8.50;99.90;;;;;;5114980;28;20587;-83
2023/05/25 04:36:13;;;;;;;5.45;1.88;;;8.50;99.90;;;;;;5114834;28;20496;-83
2023/05/25 04:38:40;;;;;;;6.05;1.85;;;8.50;99.90;;;;;;5114499;28;20552;-83
2023/05/25 04:41:06;;;;;;;5.75;2.28;;;8.60;99.90;;;;;;5114537;28;20050;-83
2023/05/25 04:43:32;;;;;;;4.60;1.77;;;8.60;99.90;;;;;;5114636;28;20035;-83
2023/05/25 04:45:58;;;;;;;4.80;1.65;;;8.60;99.90;;;;;;5114654;28;20397;-83
2023/05/25 04:48:27;;;;;;;9.00;2.17;;;8.60;99.90;;;;;;5114463;28;20114;-83
2023/05/25 04:50:54;;;;;;;9.68;2.58;;;8.70;99.90;;;;;;5095964;28;20046;-83
2023/05/25 04:53:21;;;;;;;8.88;3.08;;;8.70;99.90;;;;;;5114336;28;20040;-83
2023/05/25 04:55:48;;;;;;;9.13;2.78;;;8.80;99.90;;;;;;5096044;28;20040;-83
2023/05/25 04:58:14;;;;;;;6.75;2.50;;;8.80;99.90;;;;;;5114344;28;20173;-83
2023/05/25 05:00:40;;;;;;;10.43;3.70;;;8.80;99.90;;;;;;5095783;28;20529;-83
2023/05/25 05:03:06;;;;;;;7.10;2.72;;;8.90;99.90;;;;;;5114240;28;20409;-83
2023/05/25 05:05:33;;;;;;;12.30;3.47;;;8.90;99.90;;;;;;5114187;28;20039;-83
2023/05/25 05:07:59;;;;;;;9.98;3.67;;;8.90;99.90;;;;;;5114016;28;20204;-83
2023/05/25 05:10:24;;;;;;;8.63;3.63;;;9.00;99.90;;;;;;5113971;28;20031;-83
2023/05/25 05:12:50;;;;;;;12.35;4.22;;;9.10;99.90;;;;;;5114179;28;20040;-83
2023/05/25 05:15:16;;;;;;;11.00;4.78;;;9.10;99.90;;;;;;5114110;28;20070;-83
2023/05/25 05:17:41;;;;;;;13.13;4.70;;;9.10;99.90;;;;;;5113917;28;20084;-83
2023/05/25 05:20:07;;;;;;;12.32;5.35;;;9.20;99.90;;;;;;5113641;28;20040;-83
2023/05/25 05:22:33;;;;;;;13.60;4.80;;;9.30;99.90;;;;;;5114158;28;20627;-83
2023/05/25 05:24:59;;;;;;;11.48;4.43;;;9.40;99.90;;;;;;5113793;28;20047;-83
2023/05/25 05:27:27;;;;;;;12.05;5.05;;;9.50;99.90;;;;;;5113930;28;20039;-83
2023/05/25 05:29:53;;;;;;;15.43;5.05;;;9.50;99.90;;;;;;5112098;28;20035;-83
2023/05/25 05:32:19;;;;;;;15.32;5.40;;;9.60;99.90;;;;;;5095573;28;20043;-83
2023/05/25 05:34:44;;;;;;;14.18;5.70;;;9.70;99.90;;;;;;5113600;28;20041;-83
2023/05/25 05:37:10;;;;;;;13.90;5.50;;;9.80;99.90;;;;;;5113602;28;20036;-83
2023/05/25 05:39:36;;;;;;;12.88;5.55;;;9.90;99.90;;;;;;5113375;28;20519;-83
2023/05/25 05:42:01;;;;;;;12.10;4.60;;;10.00;99.90;;;;;;5113633;28;20058;-84
2023/05/25 05:44:27;;;;;;;15.13;5.47;;;10.00;99.90;;;;;;5113522;28;20114;-84
2023/05/25 05:46:58;;;;;;;16.33;5.78;;;10.20;99.90;;;;;;5113376;28;20056;-84
2023/05/25 05:49:26;;;;;;;13.07;5.50;;;10.30;99.90;;;;;;5113206;28;20027;-84
2023/05/25 05:51:51;;;;;;;15.10;5.75;;;10.40;99.90;;;;;;5114600;28;20039;-85
2023/05/25 05:54:17;;;;;;;19.10;6.22;;;10.60;99.90;;;;;;5113459;28;20036;-85
2023/05/25 05:56:42;;;;;;;18.05;5.90;;;10.70;99.90;;;;;;5113225;28;20393;-85
2023/05/25 05:59:10;;;;;;;12.50;5.78;;;10.80;99.90;;;;;;5113119;28;20070;-85
2023/05/25 06:01:36;;;;;;;14.27;6.35;;;10.90;99.90;;;;;;5112911;28;20043;-85
2023/05/25 06:04:01;;;;;;;17.35;6.10;;;11.00;99.90;;;;;;5111656;28;20093;-85
2023/05/25 06:06:27;;;;;;;17.95;6.25;;;11.20;99.90;;;;;;5113009;28;20127;-85
2023/05/25 06:08:53;;;;;;;18.58;5.78;;;11.30;99.90;;;;;;5113108;28;20031;-85
2023/05/25 06:11:18;;;;;;;18.75;5.88;;;11.40;99.90;;;;;;5111278;28;20429;-85
2023/05/25 06:13:44;;;;;;;15.30;4.85;;;11.60;99.90;;;;;;5112887;28;20035;-85
2023/05/25 06:16:11;;;;;;;15.98;5.95;;;11.70;99.90;;;;;;5112870;28;20075;-86
2023/05/25 06:18:36;;;;;;;14.15;5.45;;;11.80;99.90;;;;;;5112121;28;20548;-85
2023/05/25 06:21:02;;;;;;;19.67;6.63;;;11.80;99.90;;;;;;5112727;28;20039;-85
2023/05/25 06:23:28;;;;;;;18.15;5.60;;;12.00;99.90;;;;;;5112777;28;20040;-85
2023/05/25 06:25:54;;;;;;;19.67;10.13;;;12.10;99.90;;;;;;5112684;28;20054;-86
2023/05/25 06:28:19;;;;;;;16.48;5.85;;;12.30;99.90;;;;;;5094206;28;20045;-86
2023/05/25 06:30:45;;;;;;;13.20;5.25;;;12.40;99.90;;;;;;5112377;28;20027;-86
2023/05/25 06:33:11;;;;;;;12.77;4.60;;;12.40;99.90;;;;;;5112510;28;20512;-86
2023/05/25 06:35:36;;;;;;;14.88;5.05;;;12.50;99.90;;;;;;5112785;28;20114;-86
2023/05/25 06:38:02;;;;;;;12.98;5.15;;;12.70;99.90;;;;;;5117357;27;20506;-86
2023/05/25 06:40:28;;;;;;;11.45;5.18;;;12.70;99.90;;;;;;5121428;27;20035;-86
2023/05/25 06:42:53;;;;;;;15.32;4.18;;;12.80;99.90;;;;;;5120134;27;20118;-86
2023/05/25 06:45:20;;;;;;;15.35;6.88;;;12.90;99.90;;;;;;5122105;27;20485;-86
2023/05/25 06:47:45;;;;;;;15.13;7.28;;;13.10;99.90;;;;;;5121088;27;20057;-86
2023/05/25 06:50:11;;;;;;;12.38;4.47;;;13.40;99.90;;;;;;5120232;27;20035;-86
2023/05/25 06:52:37;;;;;;;9.13;3.00;;;13.50;99.90;;;;;;5122326;28;20062;-86
2023/05/25 06:55:02;;;;;;;12.45;3.58;;;13.70;99.90;;;;;;5120815;27;20039;-86
2023/05/25 06:57:28;;;;;;;12.65;3.88;;;13.70;99.90;;;;;;5120686;27;20492;-86
2023/05/25 06:59:54;;;;;;;13.77;4.13;;;13.80;99.90;;;;;;5121746;27;20074;-86
2023/05/25 07:02:20;;;;;;;13.05;3.75;;;13.90;99.90;;;;;;5126586;27;20051;-86
2023/05/25 07:04:45;;;;;;;21.17;4.32;;;13.90;99.90;;;;;;5132816;27;20046;-86
2023/05/25 07:07:12;;;;;;;15.25;5.78;;;14.00;99.90;;;;;;5132652;28;20036;-86
2023/05/25 07:09:38;;;;;;;16.48;6.18;;;14.10;99.90;;;;;;5132418;28;20039;-86
2023/05/25 07:12:09;;;;;;;15.43;4.07;;;14.20;99.90;;;;;;5132492;28;20058;-86
2023/05/25 07:14:36;;;;;;;12.88;3.70;;;14.20;99.90;;;;;;5132633;28;20495;-86
2023/05/25 07:17:01;;;;;;;10.90;3.92;;;14.20;99.90;;;;;;5132506;28;20035;-85
2023/05/25 07:19:27;;;;;;;14.18;5.78;;;14.30;99.90;;;;;;5132179;28;20087;-86
2023/05/25 07:21:52;;;;;;;12.15;4.05;;;14.40;99.90;;;;;;5132710;28;20031;-86
2023/05/25 07:24:18;;;;;;;13.30;3.88;;;14.50;99.90;;;;;;5132647;28;20039;-86
2023/05/25 07:26:44;;;;;;;17.10;5.50;;;14.60;99.90;;;;;;5132401;28;20039;-86
2023/05/25 07:29:11;;;;;;;18.02;5.82;;;14.80;99.90;;;;;;5132548;27;20110;-86
2023/05/25 07:31:37;;;;;;;11.80;3.90;;;14.90;99.90;;;;;;5136238;27;20031;-86
2023/05/25 07:34:02;;;;;;;12.80;4.32;;;15.00;99.90;;;;;;5136564;27;20034;-86
2023/05/25 07:36:28;;;;;;;12.85;4.05;;;15.10;99.90;;;;;;5136517;27;20047;-86
2023/05/25 07:38:53;;;;;;;15.93;5.63;;;15.20;99.90;;;;;;5136487;27;20039;-86
2023/05/25 07:41:19;;;;;;;18.20;5.28;;;15.30;99.90;;;;;;5136223;27;20118;-86
2023/05/25 07:43:45;;;;;;;11.60;3.63;;;15.40;99.90;;;;;;5136407;27;20541;-86
2023/05/25 07:46:10;;;;;;;16.58;5.30;;;15.40;99.90;;;;;;5136230;27;20065;-86
2023/05/25 07:48:36;;;;;;;17.65;4.60;;;15.50;99.90;;;;;;5136403;27;20074;-86
2023/05/25 07:51:02;;;;;;;15.30;4.63;;;15.60;99.90;;;;;;5117506;27;20499;-86
2023/05/25 07:53:27;;;;;;;15.50;4.57;;;15.70;99.50;;;;;;5136197;27;20081;-86
2023/05/25 07:55:53;;;;;;;13.73;4.57;;;15.80;98.50;;;;;;5117795;27;20087;-86
2023/05/25 07:58:19;;;;;;;13.60;4.45;;;15.80;98.20;;;;;;5135896;27;20039;-86
2023/05/25 08:00:44;;;;;;;11.43;2.75;;;15.80;95.70;;;;;;5135664;27;20042;-86
2023/05/25 08:03:10;;;;;;;14.70;4.43;;;15.70;95.70;;;;;;5136150;27;20038;-86
2023/05/25 08:05:36;;;;;;;13.88;4.03;;;15.60;93.70;;;;;;5136106;27;20504;-86
2023/05/25 08:08:01;;;;;;;14.15;4.47;;;15.60;93.10;;;;;;5136014;27;20042;-86
2023/05/25 08:10:30;;;;;;;15.68;4.82;;;15.60;93.20;;;;;;5135449;27;20194;-86
2023/05/25 08:12:57;;;;;;;14.10;4.30;;;15.50;93.70;;;;;;5135849;27;20116;-86
2023/05/25 08:15:24;;;;;;;15.20;4.97;;;15.50;94.10;;;;;;5135688;27;20519;-86
2023/05/25 08:17:49;;;;;;;15.30;3.28;;;15.50;96.10;;;;;;5135595;27;20047;-86
2023/05/25 08:20:16;;;;;;;14.73;3.35;;;15.40;98.00;;;;;;5135554;27;20031;-86
2023/05/25 08:22:42;;;;;;;12.80;4.13;;;15.40;99.90;;;;;;5129492;27;20032;-86
2023/05/25 08:25:08;;;;;;;13.95;4.05;;;15.40;99.90;;;;;;5124460;27;20474;-86
2023/05/25 08:27:34;;;;;;;15.52;4.88;;;15.50;99.90;;;;;;5090470;27;20147;-86
2023/05/25 08:30:00;;;;;;;15.55;4.68;;;15.60;99.90;;;;;;5120774;27;20043;-86
2023/05/25 08:32:26;;;;;;;15.38;4.97;;;15.80;99.90;;;;;;5124971;27;20069;-86
2023/05/25 08:34:51;;;;;;;13.43;3.53;;;15.80;99.40;;;;;;5125572;27;20058;-86
2023/05/25 08:37:18;;;;;;;13.32;2.95;;;15.90;99.10;;;;;;5123673;27;20491;-86
2023/05/25 08:39:44;;;;;;;14.52;4.25;;;15.90;98.50;;;;;;5124466;27;20043;-86
2023/05/25 08:42:10;;;;;;;13.50;4.18;;;16.00;96.50;;;;;;5124584;27;20458;-86
2023/05/25 08:44:37;;;;;;;12.98;4.03;;;16.00;94.20;;;;;;5120663;27;20031;-86
2023/05/25 08:47:08;;;;;;;14.02;4.47;;;16.00;93.70;;;;;;5079449;28;20084;-86
2023/05/25 08:49:37;;;;;;;15.93;3.63;;;16.00;93.20;;;;;;5114181;28;20043;-86
2023/05/25 08:52:04;;;;;;;13.52;3.17;;;16.00;93.70;;;;;;5114604;28;20042;-86
2023/05/25 08:54:34;;;;;;;15.68;4.28;;;15.90;94.40;;;;;;5114494;28;20269;-86
2023/05/25 08:57:14;;;;;;;15.30;4.20;;;16.00;94.70;;;;;;5114117;28;20043;-86
2023/05/25 09:00:09;;;;;;;15.60;4.53;;;16.00;95.20;;;;;;5114219;28;20460;-86
2023/05/25 09:03:00;;;;;;;12.55;2.92;;;16.10;95.10;;;;;;5114520;28;20075;-86
2023/05/25 09:05:26;;;;;;;14.13;5.10;;;16.20;95.80;;;;;;5114101;28;20087;-86
2023/05/25 09:07:53;;;;;;;17.38;5.15;;;16.30;96.10;;;;;;5114359;28;20046;-85
2023/05/25 09:10:20;;;;;;;16.17;5.07;;;16.40;94.90;;;;;;5113900;28;20035;-86
2023/05/25 09:12:47;;;;;;;16.55;4.68;;;16.50;94.30;;;;;;5114266;28;20036;-86
2023/05/25 09:15:13;;;;;;;17.73;4.88;;;16.50;93.20;;;;;;5114060;28;20118;-86
2023/05/25 09:17:40;;;;;;;18.60;4.30;;;16.60;93.20;;;;;;5113931;28;20162;-86
2023/05/25 09:20:09;;;;;;;16.20;3.70;;;16.70;93.00;;;;;;5113813;28;20042;-86
2023/05/25 09:22:35;;;;;;;18.20;5.10;;;16.80;92.50;;;;;;5114091;28;20078;-86
2023/05/25 09:25:05;;;;;;;17.33;4.78;;;16.80;91.40;;;;;;5116581;27;20045;-85
2023/05/25 09:27:34;;;;;;;15.35;4.60;;;16.80;89.90;;;;;;5124841;27;20031;-86
2023/05/25 09:30:01;;;;;;;15.77;5.55;;;16.70;88.10;;;;;;5122872;27;20060;-86
2023/05/25 09:32:27;;;;;;;20.33;6.40;;;16.70;88.10;;;;;;5122799;27;20130;-86
2023/05/25 09:34:55;;;;;;;22.95;6.63;;;16.70;88.20;;;;;;5124754;27;20068;-86
2023/05/25 09:37:21;;;;;;;20.90;7.28;;;16.70;88.10;;;;;;5104873;27;20035;-86
2023/05/25 09:39:46;;;;;;;18.85;6.40;;;16.70;87.80;;;;;;5122383;27;20046;-86
2023/05/25 09:42:12;;;;;;;17.83;5.72;;;16.70;87.40;;;;;;5116302;27;20067;-86
2023/05/25 09:44:39;;;;;;;18.92;5.78;;;16.80;87.40;;;;;;5113473;28;20500;-86
2023/05/25 09:47:05;;;;;;;18.88;4.30;;;16.90;87.20;;;;;;5113252;28;20054;-86
2023/05/25 09:49:30;;;;;;;20.77;6.10;;;16.80;86.40;;;;;;5113058;28;20489;-86
2023/05/25 09:51:56;;;;;;;19.38;6.00;;;16.90;84.90;;;;;;5112799;28;20080;-86
2023/05/25 09:54:22;;;;;;;17.52;5.38;;;17.00;84.20;;;;;;5113141;28;20035;-86
2023/05/25 09:56:48;;;;;;;16.23;5.35;;;17.10;83.80;;;;;;5113288;28;20047;-85
2023/05/25 09:59:14;;;;;;;17.02;4.78;;;17.30;83.70;;;;;;5113069;28;20447;-86
2023/05/25 10:01:40;;;;;;;15.38;4.40;;;17.30;82.90;;;;;;5112726;28;20054;-86
2023/05/25 10:04:06;;;;;;;16.65;5.28;;;17.20;81.90;;;;;;5113197;28;20043;-86
2023/05/25 10:06:32;;;;;;;19.80;6.50;;;17.20;81.10;;;;;;5113355;28;20040;-86
2023/05/25 10:09:00;;;;;;;18.00;5.63;;;17.20;79.80;;;;;;5112932;28;20035;-86
2023/05/25 10:11:26;;;;;;;17.65;5.95;;;17.30;79.60;;;;;;5094261;28;20035;-86
2023/05/25 10:13:54;;;;;;;17.50;5.28;;;17.40;79.30;;;;;;5116843;27;20396;-86
2023/05/25 10:16:26;;;;;;;21.45;7.00;;;17.70;81.00;;;;;;5130355;27;20137;-86
2023/05/25 10:19:05;;;;;;;19.00;5.70;;;17.80;81.30;;;;;;5133323;27;20039;-86
2023/05/25 10:21:33;;;;;;;25.02;6.60;;;18.00;79.90;;;;;;5133198;27;20036;-86
2023/05/25 10:24:41;;;;;;;19.48;6.10;;;18.10;79.60;;;;;;5118721;27;20470;-86
2023/05/25 10:27:14;;;;;;;22.05;6.80;;;18.20;77.90;;;;;;5045042;27;20056;-86
2023/05/25 10:29:39;;;;;;;22.02;6.13;;;18.20;76.80;;;;;;5118753;27;20092;-86
2023/05/25 10:32:06;;;;;;;20.95;6.28;;;18.20;77.20;;;;;;5122519;27;20031;-86
2023/05/25 10:34:32;;;;;;;19.15;6.07;;;18.30;77.10;;;;;;5123202;27;20064;-86
2023/05/25 10:36:58;;;;;;;18.67;5.25;;;18.40;76.40;;;;;;5117640;27;20042;-86
2023/05/25 10:39:25;;;;;;;16.33;5.70;;;18.60;74.80;;;;;;5114558;27;20093;-86
2023/05/25 10:41:52;;;;;;;16.63;5.30;;;18.80;74.80;;;;;;5116260;27;20133;-86
2023/05/25 10:44:19;;;;;;;18.08;5.82;;;18.90;74.30;;;;;;5115265;27;20546;-86
2023/05/25 10:46:45;;;;;;;20.25;5.93;;;19.00;73.80;;;;;;5114181;27;20028;-86
2023/05/25 10:49:11;;;;;;;20.52;6.45;;;19.10;73.90;;;;;;5097992;27;20027;-86
2023/05/25 10:51:40;;;;;;;18.10;5.95;;;19.20;73.00;;;;;;5122782;27;20470;-86
2023/05/25 10:54:06;;;;;;;17.48;5.25;;;19.30;72.20;;;;;;5122175;27;20074;-86
2023/05/25 10:56:32;;;;;;;18.13;5.60;;;19.40;71.40;;;;;;5121338;27;20027;-86
2023/05/25 10:59:01;;;;;;;20.23;5.97;;;19.60;71.40;;;;;;5123205;27;20035;-86
2023/05/25 11:01:29;;;;;;;19.40;6.55;;;19.50;70.70;;;;;;5121860;27;20061;-86
2023/05/25 11:04:12;;;;;;;20.35;6.10;;;19.50;70.20;;;;;;5120736;27;20115;-86
2023/05/25 11:06:42;;;;;;;19.48;6.43;;;19.50;70.10;;;;;;5121064;27;20032;-86
2023/05/25 11:09:25;;;;;;;17.90;5.30;;;19.60;70.70;;;;;;5121671;28;20027;-86
2023/05/25 11:11:54;;;;;;;18.30;5.65;;;19.70;69.50;;;;;;5096707;28;20481;-86
2023/05/25 11:14:28;;;;;;;19.60;5.93;;;19.80;69.40;;;;;;5112009;28;20040;-86
2023/05/25 11:17:06;;;;;;;21.05;5.82;;;20.00;69.40;;;;;;5112260;28;20053;-86
2023/05/25 11:19:41;;;;;;;18.20;5.80;;;20.00;68.30;;;;;;5111724;28;20066;-86
2023/05/25 11:22:15;;;;;;;17.65;5.25;;;20.10;68.00;;;;;;5112069;28;20043;-86
2023/05/25 11:24:44;;;;;;;18.10;5.28;;;20.20;66.70;;;;;;5111937;28;20043;-86
2023/05/25 11:27:10;;;;;;;21.52;5.57;;;20.20;66.60;;;;;;5112106;28;20040;-87
2023/05/25 11:29:36;;;;;;;18.02;5.65;;;20.30;66.50;;;;;;5114086;28;20421;-87
2023/05/25 11:32:02;;;;;;;18.10;5.47;;;20.30;65.60;;;;;;5122634;28;20035;-87
2023/05/25 11:34:30;;;;;;;18.38;5.72;;;20.50;66.60;;;;;;5121237;28;20563;-87
2023/05/25 11:37:00;;;;;;;21.08;6.78;;;20.60;66.40;;;;;;5120979;28;20039;-86
2023/05/25 11:39:26;;;;;;;17.02;5.22;;;20.60;65.80;;;;;;5118310;28;20039;-86
2023/05/25 11:41:54;;;;;;;18.98;7.38;;;20.70;66.40;;;;;;5121623;28;20293;-86
2023/05/25 11:44:30;;;;;;;19.60;5.80;;;20.90;65.90;;;;;;5122472;28;20038;-86
2023/05/25 11:47:00;;;;;;;17.38;6.30;;;20.90;64.80;;;;;;5122467;28;20118;-86
2023/05/25 11:49:26;;;;;;;19.90;5.97;;;20.80;64.40;;;;;;5118208;28;20071;-86
2023/05/25 11:51:58;;;;;;;14.18;5.28;;;20.80;64.10;;;;;;5121385;28;20063;-86
2023/05/25 11:54:28;;;;;;;17.35;5.60;;;20.80;64.30;;;;;;5123562;28;20042;-87
2023/05/25 11:56:58;;;;;;;16.02;5.22;;;20.90;64.40;;;;;;5132123;28;20396;-87
2023/05/25 11:59:28;;;;;;;22.40;7.15;;;20.90;62.70;;;;;;5132317;28;20039;-87
2023/05/25 12:01:59;;;;;;;19.85;5.65;;;20.90;63.00;;;;;;5132310;28;20039;-86
2023/05/25 12:04:25;;;;;;;17.60;4.90;;;20.90;62.80;;;;;;5113572;28;20054;-86
2023/05/25 12:06:51;;;;;;;15.23;5.22;;;20.90;63.20;;;;;;5113139;28;20047;-87
2023/05/25 12:09:20;;;;;;;17.83;5.38;;;21.10;63.40;;;;;;5112272;28;20473;-86
2023/05/25 12:11:47;;;;;;;19.75;6.10;;;21.20;63.70;;;;;;5113156;28;20031;-86
2023/05/25 12:14:13;;;;;;;19.55;5.63;;;21.20;62.70;;;;;;5132108;28;20031;-86
2023/05/25 12:16:40;;;;;;;17.17;4.95;;;21.10;62.10;;;;;;5116019;27;20507;-87
2023/05/25 12:19:07;;;;;;;17.50;5.07;;;21.10;62.70;;;;;;5117275;27;20043;-86
2023/05/25 12:21:33;;;;;;;16.48;5.30;;;21.20;62.10;;;;;;5117242;27;20058;-87
2023/05/25 12:24:00;;;;;;;17.70;5.28;;;21.10;61.30;;;;;;5117169;27;20113;-86
2023/05/25 12:26:27;;;;;;;16.42;5.53;;;21.20;62.00;;;;;;5100185;27;20043;-86
2023/05/25 12:29:07;;;;;;;20.60;5.40;;;21.30;61.90;;;;;;5117107;27;20042;-86
2023/05/25 12:31:37;;;;;;;17.95;5.60;;;21.50;62.70;;;;;;5116557;27;20126;-87
2023/05/25 12:34:25;;;;;;;16.52;5.35;;;21.60;61.60;;;;;;5117619;27;20370;-86
2023/05/25 12:36:53;;;;;;;18.02;5.35;;;21.60;61.50;;;;;;5117290;27;20118;-86
2023/05/25 12:39:28;;;;;;;17.15;5.40;;;21.80;61.10;;;;;;5115765;27;20035;-86
2023/05/25 12:41:54;;;;;;;17.25;5.90;;;21.80;60.90;;;;;;5116717;27;20122;-87
2023/05/25 12:44:33;;;;;;;21.10;5.50;;;21.80;60.60;;;;;;5116917;27;20051;-86
2023/05/25 12:47:16;;;;;;;19.10;6.10;;;21.90;60.50;;;;;;5116817;27;20130;-87